Trimble, Illinois
Current Conditions -  °F | °C
As of 10:35 AM on Thursday 30 Oct 2014 (Local Time) from KRSV Reporting Station
Clear Clear  
Wind Chill: 51°   Ceiling: Unl
Heat Index: 51°   Visibility: 10mi
Dew Point: 37°   Wind: 6mph
Humidity: 59%   Direction: 130°SE
Pressure: 30.18"   Gusts: NA
Location:  39.0131°N, 87.7657°W
Report Text: KRSV 301535Z AUTO 13005KT 10SM CLR 11/03 A3018 RMK AO2 T01050027
Loading
Personal Weather Stations






























Interactive Weather Map
Tropical Storm Tracking
New forecast layout! Learn more

10-Day Weather Forecast

Advertisements
Track Severe Weather on mobile